sensor_id;sensor_type;location;lat;lon;timestamp;P1;durP1;ratioP1;P2;durP2;ratioP2
54307;SDS011;40208;39.778;2.710;2023-12-20T00:01:56;28.55;;;18.85;;
54307;SDS011;40208;39.778;2.710;2023-12-20T00:04:41;29.35;;;17.90;;
54307;SDS011;40208;39.778;2.710;2023-12-20T00:07:25;31.52;;;18.30;;
54307;SDS011;40208;39.778;2.710;2023-12-20T00:10:10;30.67;;;16.50;;
54307;SDS011;40208;39.778;2.710;2023-12-20T00:12:57;26.20;;;16.05;;
54307;SDS011;40208;39.778;2.710;2023-12-20T00:15:41;24.00;;;14.02;;
54307;SDS011;40208;39.778;2.710;2023-12-20T00:18:26;16.38;;;10.25;;
54307;SDS011;40208;39.778;2.710;2023-12-20T00:21:11;16.40;;;9.48;;
54307;SDS011;40208;39.778;2.710;2023-12-20T00:23:56;12.77;;;7.50;;
54307;SDS011;40208;39.778;2.710;2023-12-20T00:26:41;14.93;;;8.23;;
54307;SDS011;40208;39.778;2.710;2023-12-20T00:29:26;16.13;;;8.85;;
54307;SDS011;40208;39.778;2.710;2023-12-20T00:32:11;17.23;;;8.55;;
54307;SDS011;40208;39.778;2.710;2023-12-20T00:34:56;13.43;;;7.63;;
54307;SDS011;40208;39.778;2.710;2023-12-20T00:37:41;11.10;;;6.97;;
54307;SDS011;40208;39.778;2.710;2023-12-20T00:40:27;10.40;;;6.65;;
54307;SDS011;40208;39.778;2.710;2023-12-20T00:43:12;11.75;;;7.30;;
54307;SDS011;40208;39.778;2.710;2023-12-20T00:45:57;8.27;;;4.65;;
54307;SDS011;40208;39.778;2.710;2023-12-20T00:48:44;8.10;;;4.60;;
54307;SDS011;40208;39.778;2.710;2023-12-20T00:51:29;11.70;;;6.85;;
54307;SDS011;40208;39.778;2.710;2023-12-20T00:54:14;13.75;;;7.85;;
54307;SDS011;40208;39.778;2.710;2023-12-20T00:56:59;11.93;;;6.57;;
54307;SDS011;40208;39.778;2.710;2023-12-20T00:59:44;12.65;;;7.72;;
54307;SDS011;40208;39.778;2.710;2023-12-20T01:02:29;16.58;;;8.95;;
54307;SDS011;40208;39.778;2.710;2023-12-20T01:05:14;9.38;;;6.07;;
54307;SDS011;40208;39.778;2.710;2023-12-20T01:07:59;10.60;;;5.20;;
54307;SDS011;40208;39.778;2.710;2023-12-20T01:10:44;10.40;;;5.68;;
54307;SDS011;40208;39.778;2.710;2023-12-20T01:13:30;9.85;;;6.72;;
54307;SDS011;40208;39.778;2.710;2023-12-20T01:16:15;8.85;;;6.00;;
54307;SDS011;40208;39.778;2.710;2023-12-20T01:19:00;14.77;;;8.68;;
54307;SDS011;40208;39.778;2.710;2023-12-20T01:21:45;17.25;;;10.15;;
54307;SDS011;40208;39.778;2.710;2023-12-20T01:24:29;9.73;;;6.20;;
54307;SDS011;40208;39.778;2.710;2023-12-20T01:27:14;9.75;;;5.78;;
54307;SDS011;40208;39.778;2.710;2023-12-20T01:29:59;10.02;;;6.50;;
54307;SDS011;40208;39.778;2.710;2023-12-20T01:32:44;14.80;;;8.38;;
54307;SDS011;40208;39.778;2.710;2023-12-20T01:35:29;16.15;;;8.70;;
54307;SDS011;40208;39.778;2.710;2023-12-20T01:38:13;12.68;;;8.07;;
54307;SDS011;40208;39.778;2.710;2023-12-20T01:40:58;16.58;;;9.18;;
54307;SDS011;40208;39.778;2.710;2023-12-20T01:43:44;16.20;;;8.93;;
54307;SDS011;40208;39.778;2.710;2023-12-20T01:46:29;18.88;;;9.40;;
54307;SDS011;40208;39.778;2.710;2023-12-20T01:49:14;18.08;;;9.70;;
54307;SDS011;40208;39.778;2.710;2023-12-20T01:51:59;15.57;;;8.77;;
54307;SDS011;40208;39.778;2.710;2023-12-20T01:54:44;17.13;;;8.85;;
54307;SDS011;40208;39.778;2.710;2023-12-20T01:57:29;13.85;;;8.27;;
54307;SDS011;40208;39.778;2.710;2023-12-20T02:00:14;11.40;;;7.25;;
54307;SDS011;40208;39.778;2.710;2023-12-20T02:03:03;21.00;;;11.30;;
54307;SDS011;40208;39.778;2.710;2023-12-20T02:05:49;24.75;;;14.30;;
54307;SDS011;40208;39.778;2.710;2023-12-20T02:08:35;25.20;;;13.27;;
54307;SDS011;40208;39.778;2.710;2023-12-20T02:11:20;24.08;;;13.23;;
54307;SDS011;40208;39.778;2.710;2023-12-20T02:14:05;22.40;;;12.20;;
54307;SDS011;40208;39.778;2.710;2023-12-20T02:16:50;20.85;;;10.15;;
54307;SDS011;40208;39.778;2.710;2023-12-20T02:19:34;14.20;;;9.55;;
54307;SDS011;40208;39.778;2.710;2023-12-20T02:22:19;12.65;;;6.53;;
54307;SDS011;40208;39.778;2.710;2023-12-20T02:25:04;14.57;;;7.25;;
54307;SDS011;40208;39.778;2.710;2023-12-20T02:27:49;14.68;;;7.07;;
54307;SDS011;40208;39.778;2.710;2023-12-20T02:30:34;7.40;;;4.00;;
54307;SDS011;40208;39.778;2.710;2023-12-20T02:33:19;7.07;;;3.70;;
54307;SDS011;40208;39.778;2.710;2023-12-20T02:36:04;7.03;;;4.47;;
54307;SDS011;40208;39.778;2.710;2023-12-20T02:38:48;6.95;;;4.30;;
54307;SDS011;40208;39.778;2.710;2023-12-20T02:41:35;10.98;;;6.10;;
54307;SDS011;40208;39.778;2.710;2023-12-20T02:44:20;11.23;;;5.78;;
54307;SDS011;40208;39.778;2.710;2023-12-20T02:47:04;12.30;;;7.30;;
54307;SDS011;40208;39.778;2.710;2023-12-20T02:49:49;18.83;;;9.07;;
54307;SDS011;40208;39.778;2.710;2023-12-20T02:52:34;15.90;;;9.40;;
54307;SDS011;40208;39.778;2.710;2023-12-20T02:55:19;18.02;;;9.80;;
54307;SDS011;40208;39.778;2.710;2023-12-20T02:58:04;16.40;;;10.00;;
54307;SDS011;40208;39.778;2.710;2023-12-20T03:00:48;19.88;;;9.23;;
54307;SDS011;40208;39.778;2.710;2023-12-20T03:03:33;18.42;;;8.75;;
54307;SDS011;40208;39.778;2.710;2023-12-20T03:06:18;22.92;;;9.65;;
54307;SDS011;40208;39.778;2.710;2023-12-20T03:09:03;18.23;;;8.38;;
54307;SDS011;40208;39.778;2.710;2023-12-20T03:11:48;16.48;;;9.02;;
54307;SDS011;40208;39.778;2.710;2023-12-20T03:14:33;18.05;;;10.93;;
54307;SDS011;40208;39.778;2.710;2023-12-20T03:17:18;17.70;;;11.00;;
54307;SDS011;40208;39.778;2.710;2023-12-20T03:20:05;14.85;;;8.65;;
54307;SDS011;40208;39.778;2.710;2023-12-20T03:22:50;20.67;;;9.52;;
54307;SDS011;40208;39.778;2.710;2023-12-20T03:25:35;20.58;;;10.57;;
54307;SDS011;40208;39.778;2.710;2023-12-20T03:28:20;19.05;;;10.82;;
54307;SDS011;40208;39.778;2.710;2023-12-20T03:31:05;17.05;;;10.27;;
54307;SDS011;40208;39.778;2.710;2023-12-20T03:33:49;18.42;;;10.07;;
54307;SDS011;40208;39.778;2.710;2023-12-20T03:36:36;21.48;;;10.45;;
54307;SDS011;40208;39.778;2.710;2023-12-20T03:39:21;14.80;;;9.13;;
54307;SDS011;40208;39.778;2.710;2023-12-20T03:42:06;14.55;;;8.65;;
54307;SDS011;40208;39.778;2.710;2023-12-20T03:44:51;13.85;;;6.88;;
54307;SDS011;40208;39.778;2.710;2023-12-20T03:47:35;6.95;;;3.70;;
54307;SDS011;40208;39.778;2.710;2023-12-20T03:50:22;5.60;;;3.05;;
54307;SDS011;40208;39.778;2.710;2023-12-20T03:53:07;7.07;;;3.38;;
54307;SDS011;40208;39.778;2.710;2023-12-20T03:55:52;6.60;;;3.28;;
54307;SDS011;40208;39.778;2.710;2023-12-20T03:58:37;9.45;;;4.90;;
54307;SDS011;40208;39.778;2.710;2023-12-20T04:01:22;6.18;;;3.40;;
54307;SDS011;40208;39.778;2.710;2023-12-20T04:04:06;6.00;;;3.28;;
54307;SDS011;40208;39.778;2.710;2023-12-20T04:06:51;5.55;;;2.40;;
54307;SDS011;40208;39.778;2.710;2023-12-20T04:09:36;11.73;;;6.28;;
54307;SDS011;40208;39.778;2.710;2023-12-20T04:12:21;16.80;;;8.95;;
54307;SDS011;40208;39.778;2.710;2023-12-20T04:15:06;23.23;;;11.02;;
54307;SDS011;40208;39.778;2.710;2023-12-20T04:17:53;17.15;;;9.38;;
54307;SDS011;40208;39.778;2.710;2023-12-20T04:20:38;15.15;;;8.98;;
54307;SDS011;40208;39.778;2.710;2023-12-20T04:23:23;19.95;;;9.80;;
54307;SDS011;40208;39.778;2.710;2023-12-20T04:26:07;16.83;;;8.35;;
54307;SDS011;40208;39.778;2.710;2023-12-20T04:28:52;14.88;;;8.38;;
54307;SDS011;40208;39.778;2.710;2023-12-20T04:31:37;15.10;;;7.85;;
54307;SDS011;40208;39.778;2.710;2023-12-20T04:34:22;13.40;;;7.72;;
54307;SDS011;40208;39.778;2.710;2023-12-20T04:37:07;12.15;;;5.50;;
54307;SDS011;40208;39.778;2.710;2023-12-20T04:39:52;14.07;;;6.82;;
54307;SDS011;40208;39.778;2.710;2023-12-20T04:42:36;14.10;;;7.05;;
54307;SDS011;40208;39.778;2.710;2023-12-20T04:45:21;12.90;;;6.38;;
54307;SDS011;40208;39.778;2.710;2023-12-20T04:48:08;20.25;;;7.68;;
54307;SDS011;40208;39.778;2.710;2023-12-20T04:50:53;11.93;;;6.07;;
54307;SDS011;40208;39.778;2.710;2023-12-20T04:53:37;11.60;;;5.93;;
54307;SDS011;40208;39.778;2.710;2023-12-20T04:56:22;5.93;;;2.83;;
54307;SDS011;40208;39.778;2.710;2023-12-20T04:59:07;6.43;;;3.03;;
54307;SDS011;40208;39.778;2.710;2023-12-20T05:01:52;5.25;;;2.78;;
54307;SDS011;40208;39.778;2.710;2023-12-20T05:04:37;10.07;;;2.40;;
54307;SDS011;40208;39.778;2.710;2023-12-20T05:07:21;3.67;;;2.22;;
54307;SDS011;40208;39.778;2.710;2023-12-20T05:10:06;5.28;;;3.08;;
54307;SDS011;40208;39.778;2.710;2023-12-20T05:12:54;4.07;;;2.53;;
54307;SDS011;40208;39.778;2.710;2023-12-20T05:15:39;4.10;;;2.05;;
54307;SDS011;40208;39.778;2.710;2023-12-20T05:18:24;4.65;;;2.17;;
54307;SDS011;40208;39.778;2.710;2023-12-20T05:21:08;3.33;;;1.90;;
54307;SDS011;40208;39.778;2.710;2023-12-20T05:23:53;2.90;;;1.88;;
54307;SDS011;40208;39.778;2.710;2023-12-20T05:26:38;6.78;;;3.30;;
54307;SDS011;40208;39.778;2.710;2023-12-20T05:29:23;8.15;;;3.92;;
54307;SDS011;40208;39.778;2.710;2023-12-20T05:32:08;8.82;;;4.38;;
54307;SDS011;40208;39.778;2.710;2023-12-20T05:34:53;7.35;;;3.95;;
54307;SDS011;40208;39.778;2.710;2023-12-20T05:37:37;6.03;;;3.75;;
54307;SDS011;40208;39.778;2.710;2023-12-20T05:40:22;8.60;;;3.50;;
54307;SDS011;40208;39.778;2.710;2023-12-20T05:43:08;5.85;;;3.40;;
54307;SDS011;40208;39.778;2.710;2023-12-20T05:45:52;19.10;;;8.43;;
54307;SDS011;40208;39.778;2.710;2023-12-20T05:48:37;19.45;;;9.73;;
54307;SDS011;40208;39.778;2.710;2023-12-20T05:51:22;18.10;;;9.45;;
54307;SDS011;40208;39.778;2.710;2023-12-20T05:54:07;16.02;;;8.63;;
54307;SDS011;40208;39.778;2.710;2023-12-20T05:56:53;16.10;;;7.32;;
54307;SDS011;40208;39.778;2.710;2023-12-20T05:59:38;14.25;;;7.05;;
54307;SDS011;40208;39.778;2.710;2023-12-20T06:02:23;11.05;;;6.57;;
54307;SDS011;40208;39.778;2.710;2023-12-20T06:05:08;9.90;;;5.65;;
54307;SDS011;40208;39.778;2.710;2023-12-20T06:07:52;9.32;;;5.63;;
54307;SDS011;40208;39.778;2.710;2023-12-20T06:10:38;16.30;;;8.70;;
54307;SDS011;40208;39.778;2.710;2023-12-20T06:13:23;13.05;;;8.18;;
54307;SDS011;40208;39.778;2.710;2023-12-20T06:16:08;20.48;;;9.80;;
54307;SDS011;40208;39.778;2.710;2023-12-20T06:18:53;27.00;;;11.70;;
54307;SDS011;40208;39.778;2.710;2023-12-20T06:21:38;24.80;;;11.60;;
54307;SDS011;40208;39.778;2.710;2023-12-20T06:24:23;19.25;;;8.60;;
54307;SDS011;40208;39.778;2.710;2023-12-20T06:27:12;10.90;;;6.45;;
54307;SDS011;40208;39.778;2.710;2023-12-20T06:29:57;7.22;;;4.47;;
54307;SDS011;40208;39.778;2.710;2023-12-20T06:32:41;9.43;;;4.57;;
54307;SDS011;40208;39.778;2.710;2023-12-20T06:35:27;9.00;;;3.40;;
54307;SDS011;40208;39.778;2.710;2023-12-20T06:38:12;7.90;;;3.60;;
54307;SDS011;40208;39.778;2.710;2023-12-20T06:40:57;6.07;;;3.95;;
54307;SDS011;40208;39.778;2.710;2023-12-20T06:43:43;8.95;;;4.90;;
54307;SDS011;40208;39.778;2.710;2023-12-20T06:46:28;8.20;;;4.22;;
54307;SDS011;40208;39.778;2.710;2023-12-20T06:49:12;5.50;;;3.28;;
54307;SDS011;40208;39.778;2.710;2023-12-20T06:51:57;6.90;;;3.92;;
54307;SDS011;40208;39.778;2.710;2023-12-20T06:54:42;7.22;;;4.35;;
54307;SDS011;40208;39.778;2.710;2023-12-20T06:57:27;6.55;;;3.28;;
54307;SDS011;40208;39.778;2.710;2023-12-20T07:00:12;11.80;;;4.10;;
54307;SDS011;40208;39.778;2.710;2023-12-20T07:02:57;8.65;;;4.18;;
54307;SDS011;40208;39.778;2.710;2023-12-20T07:05:42;9.35;;;4.78;;
54307;SDS011;40208;39.778;2.710;2023-12-20T07:08:27;8.00;;;5.00;;
54307;SDS011;40208;39.778;2.710;2023-12-20T07:11:12;16.15;;;5.93;;
54307;SDS011;40208;39.778;2.710;2023-12-20T07:13:57;12.98;;;5.72;;
54307;SDS011;40208;39.778;2.710;2023-12-20T07:16:42;9.52;;;5.18;;
54307;SDS011;40208;39.778;2.710;2023-12-20T07:19:27;8.20;;;3.60;;
54307;SDS011;40208;39.778;2.710;2023-12-20T07:22:11;9.43;;;3.90;;
54307;SDS011;40208;39.778;2.710;2023-12-20T07:24:56;17.70;;;6.20;;
54307;SDS011;40208;39.778;2.710;2023-12-20T07:27:41;9.57;;;4.95;;
54307;SDS011;40208;39.778;2.710;2023-12-20T07:30:26;12.93;;;4.93;;
54307;SDS011;40208;39.778;2.710;2023-12-20T07:33:11;12.13;;;5.40;;
54307;SDS011;40208;39.778;2.710;2023-12-20T07:35:56;19.48;;;4.80;;
54307;SDS011;40208;39.778;2.710;2023-12-20T07:38:41;9.15;;;3.33;;
54307;SDS011;40208;39.778;2.710;2023-12-20T07:41:28;12.20;;;4.18;;
54307;SDS011;40208;39.778;2.710;2023-12-20T07:44:13;8.43;;;3.65;;
54307;SDS011;40208;39.778;2.710;2023-12-20T07:46:59;10.38;;;4.45;;
54307;SDS011;40208;39.778;2.710;2023-12-20T07:49:45;9.68;;;4.80;;
54307;SDS011;40208;39.778;2.710;2023-12-20T07:52:30;10.88;;;4.55;;
54307;SDS011;40208;39.778;2.710;2023-12-20T07:55:15;10.93;;;5.25;;
54307;SDS011;40208;39.778;2.710;2023-12-20T07:57:59;17.10;;;6.07;;
54307;SDS011;40208;39.778;2.710;2023-12-20T08:00:44;18.33;;;10.27;;
54307;SDS011;40208;39.778;2.710;2023-12-20T08:03:29;15.98;;;9.27;;
54307;SDS011;40208;39.778;2.710;2023-12-20T08:06:14;22.67;;;9.23;;
54307;SDS011;40208;39.778;2.710;2023-12-20T08:08:59;20.30;;;8.98;;
54307;SDS011;40208;39.778;2.710;2023-12-20T08:11:47;17.13;;;9.43;;
54307;SDS011;40208;39.778;2.710;2023-12-20T08:14:32;17.98;;;7.72;;
54307;SDS011;40208;39.778;2.710;2023-12-20T08:17:17;10.68;;;6.43;;
54307;SDS011;40208;39.778;2.710;2023-12-20T08:20:03;14.88;;;6.07;;
54307;SDS011;40208;39.778;2.710;2023-12-20T08:22:49;15.38;;;6.82;;
54307;SDS011;40208;39.778;2.710;2023-12-20T08:25:33;19.20;;;9.48;;
54307;SDS011;40208;39.778;2.710;2023-12-20T08:28:18;20.10;;;11.38;;
54307;SDS011;40208;39.778;2.710;2023-12-20T08:31:03;25.35;;;10.27;;
54307;SDS011;40208;39.778;2.710;2023-12-20T08:33:48;18.98;;;11.07;;
54307;SDS011;40208;39.778;2.710;2023-12-20T08:36:33;23.38;;;13.80;;
54307;SDS011;40208;39.778;2.710;2023-12-20T08:39:18;26.45;;;14.73;;
54307;SDS011;40208;39.778;2.710;2023-12-20T08:42:03;25.75;;;13.35;;
54307;SDS011;40208;39.778;2.710;2023-12-20T08:44:48;25.13;;;14.30;;
54307;SDS011;40208;39.778;2.710;2023-12-20T08:47:33;31.95;;;16.10;;
54307;SDS011;40208;39.778;2.710;2023-12-20T08:50:18;21.27;;;12.65;;
54307;SDS011;40208;39.778;2.710;2023-12-20T08:53:03;24.58;;;15.32;;
54307;SDS011;40208;39.778;2.710;2023-12-20T08:55:47;25.98;;;14.02;;
54307;SDS011;40208;39.778;2.710;2023-12-20T08:58:32;23.65;;;11.55;;
54307;SDS011;40208;39.778;2.710;2023-12-20T09:01:17;21.85;;;13.15;;
54307;SDS011;40208;39.778;2.710;2023-12-20T09:04:02;28.67;;;17.17;;
54307;SDS011;40208;39.778;2.710;2023-12-20T09:06:47;37.25;;;18.42;;
54307;SDS011;40208;39.778;2.710;2023-12-20T09:09:31;30.33;;;16.48;;
54307;SDS011;40208;39.778;2.710;2023-12-20T09:12:19;28.17;;;15.27;;
54307;SDS011;40208;39.778;2.710;2023-12-20T09:15:05;27.55;;;15.70;;
54307;SDS011;40208;39.778;2.710;2023-12-20T09:17:50;30.75;;;16.38;;
54307;SDS011;40208;39.778;2.710;2023-12-20T09:20:34;48.20;;;23.25;;
54307;SDS011;40208;39.778;2.710;2023-12-20T09:23:19;36.15;;;20.63;;
54307;SDS011;40208;39.778;2.710;2023-12-20T09:26:04;46.10;;;21.00;;
54307;SDS011;40208;39.778;2.710;2023-12-20T09:28:49;42.45;;;25.13;;
54307;SDS011;40208;39.778;2.710;2023-12-20T09:31:36;48.75;;;24.98;;
54307;SDS011;40208;39.778;2.710;2023-12-20T09:34:21;46.40;;;24.42;;
54307;SDS011;40208;39.778;2.710;2023-12-20T09:37:06;57.75;;;28.27;;
54307;SDS011;40208;39.778;2.710;2023-12-20T09:39:51;49.55;;;26.60;;
54307;SDS011;40208;39.778;2.710;2023-12-20T09:42:42;50.58;;;26.38;;
54307;SDS011;40208;39.778;2.710;2023-12-20T09:45:31;48.58;;;27.08;;
54307;SDS011;40208;39.778;2.710;2023-12-20T09:48:17;42.45;;;26.00;;
54307;SDS011;40208;39.778;2.710;2023-12-20T09:51:03;54.92;;;26.85;;
54307;SDS011;40208;39.778;2.710;2023-12-20T09:53:48;54.70;;;27.48;;
54307;SDS011;40208;39.778;2.710;2023-12-20T09:56:33;56.75;;;29.38;;
54307;SDS011;40208;39.778;2.710;2023-12-20T09:59:18;59.03;;;28.83;;
54307;SDS011;40208;39.778;2.710;2023-12-20T10:02:03;48.75;;;28.60;;
54307;SDS011;40208;39.778;2.710;2023-12-20T10:04:54;50.53;;;26.48;;
54307;SDS011;40208;39.778;2.710;2023-12-20T10:07:38;43.80;;;26.23;;
54307;SDS011;40208;39.778;2.710;2023-12-20T10:10:23;47.03;;;26.90;;
54307;SDS011;40208;39.778;2.710;2023-12-20T10:13:12;45.65;;;23.48;;
54307;SDS011;40208;39.778;2.710;2023-12-20T10:15:57;37.97;;;22.52;;
54307;SDS011;40208;39.778;2.710;2023-12-20T10:18:42;42.35;;;20.40;;
54307;SDS011;40208;39.778;2.710;2023-12-20T10:21:27;37.33;;;18.90;;
54307;SDS011;40208;39.778;2.710;2023-12-20T10:24:16;35.55;;;17.52;;
54307;SDS011;40208;39.778;2.710;2023-12-20T10:27:05;33.25;;;17.05;;
54307;SDS011;40208;39.778;2.710;2023-12-20T10:29:51;44.20;;;21.67;;
54307;SDS011;40208;39.778;2.710;2023-12-20T10:32:35;28.15;;;15.82;;
54307;SDS011;40208;39.778;2.710;2023-12-20T10:35:20;43.35;;;17.77;;
54307;SDS011;40208;39.778;2.710;2023-12-20T10:38:05;28.55;;;15.35;;
54307;SDS011;40208;39.778;2.710;2023-12-20T10:40:53;33.38;;;16.98;;
54307;SDS011;40208;39.778;2.710;2023-12-20T10:43:41;31.35;;;15.95;;
54307;SDS011;40208;39.778;2.710;2023-12-20T10:46:27;28.88;;;14.95;;
54307;SDS011;40208;39.778;2.710;2023-12-20T10:49:16;34.67;;;16.37;;
54307;SDS011;40208;39.778;2.710;2023-12-20T10:52:02;29.70;;;16.05;;
54307;SDS011;40208;39.778;2.710;2023-12-20T10:54:48;41.22;;;14.50;;
54307;SDS011;40208;39.778;2.710;2023-12-20T10:57:33;28.08;;;12.98;;
54307;SDS011;40208;39.778;2.710;2023-12-20T11:00:21;28.55;;;13.30;;
54307;SDS011;40208;39.778;2.710;2023-12-20T11:03:08;45.58;;;13.88;;
54307;SDS011;40208;39.778;2.710;2023-12-20T11:05:58;49.78;;;13.02;;
54307;SDS011;40208;39.778;2.710;2023-12-20T11:14:57;28.02;;;10.95;;
54307;SDS011;40208;39.778;2.710;2023-12-20T11:17:54;17.98;;;8.05;;
54307;SDS011;40208;39.778;2.710;2023-12-20T11:20:41;18.95;;;8.48;;
54307;SDS011;40208;39.778;2.710;2023-12-20T11:23:26;19.40;;;7.38;;
54307;SDS011;40208;39.778;2.710;2023-12-20T11:26:11;25.55;;;8.50;;
54307;SDS011;40208;39.778;2.710;2023-12-20T11:37:57;15.10;;;7.22;;
54307;SDS011;40208;39.778;2.710;2023-12-20T11:40:42;18.02;;;8.43;;
54307;SDS011;40208;39.778;2.710;2023-12-20T11:43:31;20.95;;;9.27;;
54307;SDS011;40208;39.778;2.710;2023-12-20T11:46:23;15.18;;;7.30;;
54307;SDS011;40208;39.778;2.710;2023-12-20T11:49:08;18.02;;;8.40;;
54307;SDS011;40208;39.778;2.710;2023-12-20T11:51:53;23.90;;;8.02;;
54307;SDS011;40208;39.778;2.710;2023-12-20T11:54:38;26.33;;;7.80;;
54307;SDS011;40208;39.778;2.710;2023-12-20T11:57:23;14.52;;;7.72;;
54307;SDS011;40208;39.778;2.710;2023-12-20T12:00:07;18.02;;;8.32;;
54307;SDS011;40208;39.778;2.710;2023-12-20T12:02:59;20.23;;;8.80;;
54307;SDS011;40208;39.778;2.710;2023-12-20T12:05:46;20.90;;;8.55;;
54307;SDS011;40208;39.778;2.710;2023-12-20T12:08:32;13.93;;;6.90;;
54307;SDS011;40208;39.778;2.710;2023-12-20T12:11:17;18.17;;;7.18;;
54307;SDS011;40208;39.778;2.710;2023-12-20T12:14:02;17.25;;;6.80;;
54307;SDS011;40208;39.778;2.710;2023-12-20T12:16:47;12.20;;;6.30;;
54307;SDS011;40208;39.778;2.710;2023-12-20T12:19:33;12.75;;;5.97;;
54307;SDS011;40208;39.778;2.710;2023-12-20T12:22:38;18.20;;;6.45;;
54307;SDS011;40208;39.778;2.710;2023-12-20T12:25:23;18.23;;;6.60;;
54307;SDS011;40208;39.778;2.710;2023-12-20T12:28:08;12.00;;;5.30;;
54307;SDS011;40208;39.778;2.710;2023-12-20T12:30:57;16.33;;;6.10;;
54307;SDS011;40208;39.778;2.710;2023-12-20T12:33:43;16.88;;;5.43;;
54307;SDS011;40208;39.778;2.710;2023-12-20T12:36:29;10.98;;;5.35;;
54307;SDS011;40208;39.778;2.710;2023-12-20T12:39:14;17.80;;;6.10;;
54307;SDS011;40208;39.778;2.710;2023-12-20T12:42:02;26.35;;;13.75;;
54307;SDS011;40208;39.778;2.710;2023-12-20T12:44:47;33.53;;;18.58;;
54307;SDS011;40208;39.778;2.710;2023-12-20T12:47:31;41.80;;;22.98;;
54307;SDS011;40208;39.778;2.710;2023-12-20T12:50:17;33.80;;;16.63;;
54307;SDS011;40208;39.778;2.710;2023-12-20T12:53:02;22.10;;;9.20;;
54307;SDS011;40208;39.778;2.710;2023-12-20T12:55:46;17.98;;;8.60;;
54307;SDS011;40208;39.778;2.710;2023-12-20T12:58:32;18.20;;;6.85;;
54307;SDS011;40208;39.778;2.710;2023-12-20T13:01:17;12.13;;;6.63;;
54307;SDS011;40208;39.778;2.710;2023-12-20T13:04:02;11.40;;;4.68;;
54307;SDS011;40208;39.778;2.710;2023-12-20T13:06:48;9.73;;;3.85;;
54307;SDS011;40208;39.778;2.710;2023-12-20T13:09:33;8.73;;;3.40;;
54307;SDS011;40208;39.778;2.710;2023-12-20T13:12:18;6.53;;;3.00;;
54307;SDS011;40208;39.778;2.710;2023-12-20T13:15:03;6.07;;;3.05;;
54307;SDS011;40208;39.778;2.710;2023-12-20T13:17:48;9.13;;;3.20;;
54307;SDS011;40208;39.778;2.710;2023-12-20T13:20:33;10.23;;;3.60;;
54307;SDS011;40208;39.778;2.710;2023-12-20T13:23:18;13.60;;;4.00;;
54307;SDS011;40208;39.778;2.710;2023-12-20T13:26:03;8.93;;;3.17;;
54307;SDS011;40208;39.778;2.710;2023-12-20T13:28:48;11.25;;;3.75;;
54307;SDS011;40208;39.778;2.710;2023-12-20T13:31:32;7.85;;;3.90;;
54307;SDS011;40208;39.778;2.710;2023-12-20T13:34:17;9.88;;;3.85;;
54307;SDS011;40208;39.778;2.710;2023-12-20T13:37:02;13.77;;;4.45;;
54307;SDS011;40208;39.778;2.710;2023-12-20T13:39:48;8.02;;;3.65;;
54307;SDS011;40208;39.778;2.710;2023-12-20T13:42:34;8.73;;;3.95;;
54307;SDS011;40208;39.778;2.710;2023-12-20T13:45:18;9.32;;;4.07;;
54307;SDS011;40208;39.778;2.710;2023-12-20T13:48:03;12.18;;;3.92;;
54307;SDS011;40208;39.778;2.710;2023-12-20T13:50:48;9.70;;;4.00;;
54307;SDS011;40208;39.778;2.710;2023-12-20T13:53:33;12.38;;;5.70;;
54307;SDS011;40208;39.778;2.710;2023-12-20T13:56:19;12.70;;;5.55;;
54307;SDS011;40208;39.778;2.710;2023-12-20T13:59:04;14.40;;;6.30;;
54307;SDS011;40208;39.778;2.710;2023-12-20T14:01:49;9.80;;;5.25;;
54307;SDS011;40208;39.778;2.710;2023-12-20T14:04:34;10.75;;;5.63;;
54307;SDS011;40208;39.778;2.710;2023-12-20T14:07:19;13.35;;;5.70;;
54307;SDS011;40208;39.778;2.710;2023-12-20T14:10:05;20.85;;;7.18;;
54307;SDS011;40208;39.778;2.710;2023-12-20T14:12:50;10.45;;;6.20;;
54307;SDS011;40208;39.778;2.710;2023-12-20T14:15:35;10.18;;;5.43;;
54307;SDS011;40208;39.778;2.710;2023-12-20T14:18:21;12.73;;;5.80;;
54307;SDS011;40208;39.778;2.710;2023-12-20T14:21:06;13.48;;;6.20;;
54307;SDS011;40208;39.778;2.710;2023-12-20T14:23:51;11.43;;;5.90;;
54307;SDS011;40208;39.778;2.710;2023-12-20T14:26:36;11.90;;;6.18;;
54307;SDS011;40208;39.778;2.710;2023-12-20T14:29:21;13.25;;;6.10;;
54307;SDS011;40208;39.778;2.710;2023-12-20T14:32:06;14.20;;;6.40;;
54307;SDS011;40208;39.778;2.710;2023-12-20T14:34:51;9.10;;;5.28;;
54307;SDS011;40208;39.778;2.710;2023-12-20T14:37:36;11.57;;;5.97;;
54307;SDS011;40208;39.778;2.710;2023-12-20T14:40:25;13.35;;;5.47;;
54307;SDS011;40208;39.778;2.710;2023-12-20T14:43:09;11.48;;;5.10;;
54307;SDS011;40208;39.778;2.710;2023-12-20T14:45:54;12.68;;;5.70;;
54307;SDS011;40208;39.778;2.710;2023-12-20T14:48:39;10.75;;;5.75;;
54307;SDS011;40208;39.778;2.710;2023-12-20T14:51:24;15.40;;;6.30;;
54307;SDS011;40208;39.778;2.710;2023-12-20T14:54:09;12.07;;;6.07;;
54307;SDS011;40208;39.778;2.710;2023-12-20T14:56:54;13.40;;;7.25;;
54307;SDS011;40208;39.778;2.710;2023-12-20T14:59:40;13.65;;;6.47;;
54307;SDS011;40208;39.778;2.710;2023-12-20T15:02:25;14.80;;;7.35;;
54307;SDS011;40208;39.778;2.710;2023-12-20T15:05:09;9.30;;;5.88;;
54307;SDS011;40208;39.778;2.710;2023-12-20T15:07:54;13.20;;;6.35;;
54307;SDS011;40208;39.778;2.710;2023-12-20T15:10:39;11.40;;;5.55;;
54307;SDS011;40208;39.778;2.710;2023-12-20T15:13:24;11.88;;;6.43;;
54307;SDS011;40208;39.778;2.710;2023-12-20T15:16:09;12.30;;;5.63;;
54307;SDS011;40208;39.778;2.710;2023-12-20T15:18:53;18.88;;;6.28;;
54307;SDS011;40208;39.778;2.710;2023-12-20T15:21:38;11.65;;;5.00;;
54307;SDS011;40208;39.778;2.710;2023-12-20T15:24:27;12.23;;;5.57;;
54307;SDS011;40208;39.778;2.710;2023-12-20T15:27:20;12.55;;;5.43;;
54307;SDS011;40208;39.778;2.710;2023-12-20T15:30:05;10.02;;;5.28;;
54307;SDS011;40208;39.778;2.710;2023-12-20T15:32:51;11.40;;;5.40;;
54307;SDS011;40208;39.778;2.710;2023-12-20T15:35:36;9.43;;;5.15;;
54307;SDS011;40208;39.778;2.710;2023-12-20T15:38:21;13.98;;;5.68;;
54307;SDS011;40208;39.778;2.710;2023-12-20T15:41:06;16.85;;;5.10;;
54307;SDS011;40208;39.778;2.710;2023-12-20T15:43:51;9.68;;;5.45;;
54307;SDS011;40208;39.778;2.710;2023-12-20T15:46:35;36.95;;;8.10;;
54307;SDS011;40208;39.778;2.710;2023-12-20T15:49:20;13.90;;;5.80;;
54307;SDS011;40208;39.778;2.710;2023-12-20T15:52:05;18.15;;;5.65;;
54307;SDS011;40208;39.778;2.710;2023-12-20T15:54:50;14.60;;;5.50;;
54307;SDS011;40208;39.778;2.710;2023-12-20T15:57:34;10.93;;;4.95;;
54307;SDS011;40208;39.778;2.710;2023-12-20T16:00:19;13.85;;;4.75;;
54307;SDS011;40208;39.778;2.710;2023-12-20T16:03:04;10.02;;;5.35;;
54307;SDS011;40208;39.778;2.710;2023-12-20T16:05:49;16.70;;;6.18;;
54307;SDS011;40208;39.778;2.710;2023-12-20T16:08:33;18.95;;;6.47;;
54307;SDS011;40208;39.778;2.710;2023-12-20T16:11:18;12.77;;;6.72;;
54307;SDS011;40208;39.778;2.710;2023-12-20T16:14:03;14.30;;;8.85;;
54307;SDS011;40208;39.778;2.710;2023-12-20T16:16:48;21.83;;;9.88;;
54307;SDS011;40208;39.778;2.710;2023-12-20T16:19:32;15.38;;;8.40;;
54307;SDS011;40208;39.778;2.710;2023-12-20T16:22:17;16.45;;;10.02;;
54307;SDS011;40208;39.778;2.710;2023-12-20T16:25:02;11.93;;;6.57;;
54307;SDS011;40208;39.778;2.710;2023-12-20T16:27:47;16.50;;;6.68;;
54307;SDS011;40208;39.778;2.710;2023-12-20T16:30:32;16.27;;;6.90;;
54307;SDS011;40208;39.778;2.710;2023-12-20T16:33:17;12.70;;;8.70;;
54307;SDS011;40208;39.778;2.710;2023-12-20T16:36:02;29.58;;;13.07;;